Time;durP1;ratioP1;P1;durP2;ratioP2;P2;SDS_P1;SDS_P2;PMS_P1;PMS_P2;Temp;Humidity;BMP_temperature;BMP_pressure;BME280_temperature;BME280_humidity;BME280_pressure;Samples;Min_cycle;Max_cycle;Signal;HPM_P1;HPM_P2
2023/12/18 00:00:37;;;;;;;26.70;12.00;;;;;;;;;;5069057;28;20408;-87
2023/12/18 00:03:04;;;;;;;34.25;13.30;;;;;;;;;;5068698;28;20491;-85
2023/12/18 00:05:30;;;;;;;29.88;12.52;;;;;;;;;;5066088;28;20426;-86
2023/12/18 00:07:58;;;;;;;29.60;12.77;;;;;;;;;;5086242;28;20916;-86
2023/12/18 00:10:25;;;;;;;30.05;12.80;;;;;;;;;;5036493;28;20405;-85
2023/12/18 00:12:51;;;;;;;29.50;12.68;;;;;;;;;;5069172;28;20406;-86
2023/12/18 00:15:17;;;;;;;26.17;11.70;;;;;;;;;;5070316;28;20427;-86
2023/12/18 00:17:43;;;;;;;27.85;11.80;;;;;;;;;;5082948;28;20488;-86
2023/12/18 00:20:09;;;;;;;29.15;11.90;;;;;;;;;;5058978;28;20411;-86
2023/12/18 00:22:36;;;;;;;31.35;11.73;;;;;;;;;;5089765;28;20510;-86
2023/12/18 00:25:02;;;;;;;26.23;12.07;;;;;;;;;;5082607;28;20394;-86
2023/12/18 00:27:31;;;;;;;27.33;11.45;;;;;;;;;;5078000;28;20754;-86
2023/12/18 00:29:58;;;;;;;28.52;11.50;;;;;;;;;;5086397;28;20495;-86
2023/12/18 00:32:24;;;;;;;25.33;10.85;;;;;;;;;;5073373;28;20486;-86
2023/12/18 00:34:50;;;;;;;27.20;11.00;;;;;;;;;;5072414;28;20913;-85
2023/12/18 00:37:16;;;;;;;29.77;11.52;;;;;;;;;;5074912;28;20407;-85
2023/12/18 00:40:13;;;;;;;26.52;10.77;;;;;;;;;;5071917;28;20434;-85
2023/12/18 00:42:51;;;;;;;26.98;11.02;;;;;;;;;;5053781;28;20406;-86
2023/12/18 00:45:36;;;;;;;25.65;11.50;;;;;;;;;;5075661;28;20426;-86
2023/12/18 00:48:08;;;;;;;26.58;11.02;;;;;;;;;;5090523;28;20402;-86
2023/12/18 00:50:34;;;;;;;29.23;11.07;;;;;;;;;;5094628;28;20748;-86
2023/12/18 00:53:02;;;;;;;22.52;10.70;;;;;;;;;;5073500;28;20409;-86
2023/12/18 00:55:28;;;;;;;25.93;10.83;;;;;;;;;;5060903;28;20978;-86
2023/12/18 00:57:55;;;;;;;25.75;10.60;;;;;;;;;;5056367;28;20418;-85
2023/12/18 01:00:21;;;;;;;24.65;10.30;;;;;;;;;;5059680;28;20893;-86
2023/12/18 01:02:57;;;;;;;27.33;10.40;;;;;;;;;;5061683;28;20406;-86
2023/12/18 01:05:23;;;;;;;25.52;10.25;;;;;;;;;;5053118;28;20451;-86
2023/12/18 01:07:51;;;;;;;25.58;10.60;;;;;;;;;;5072539;28;20407;-86
2023/12/18 01:10:17;;;;;;;26.90;10.70;;;;;;;;;;5087795;28;20897;-82
2023/12/18 01:12:43;;;;;;;24.63;11.05;;;;;;;;;;5053742;28;20433;-82
2023/12/18 01:15:10;;;;;;;22.67;10.85;;;;;;;;;;5077813;28;20401;-82
2023/12/18 01:17:37;;;;;;;28.67;10.88;;;;;;;;;;5064464;28;20818;-83
2023/12/18 01:20:04;;;;;;;24.02;10.18;;;;;;;;;;5072048;28;20424;-83
2023/12/18 01:22:31;;;;;;;29.98;10.75;;;;;;;;;;5068180;28;20792;-82
2023/12/18 01:24:57;;;;;;;25.80;10.25;;;;;;;;;;5075597;28;20405;-82
2023/12/18 01:27:23;;;;;;;24.42;10.07;;;;;;;;;;5075500;28;20485;-82
2023/12/18 01:29:50;;;;;;;23.33;9.80;;;;;;;;;;5071280;28;20392;-81
2023/12/18 01:32:24;;;;;;;28.30;10.00;;;;;;;;;;5087959;28;20456;-82
2023/12/18 01:34:50;;;;;;;24.92;10.35;;;;;;;;;;5071157;28;20725;-81
2023/12/18 01:37:16;;;;;;;23.27;10.00;;;;;;;;;;5107243;28;20449;-82
2023/12/18 01:39:43;;;;;;;28.83;10.07;;;;;;;;;;5104443;27;20469;-82
2023/12/18 01:42:09;;;;;;;21.23;9.07;;;;;;;;;;5090586;28;20458;-82
2023/12/18 01:44:35;;;;;;;25.40;9.52;;;;;;;;;;5075687;28;20484;-82
2023/12/18 01:47:02;;;;;;;29.00;9.80;;;;;;;;;;5058703;28;20437;-82
2023/12/18 01:49:31;;;;;;;25.65;9.38;;;;;;;;;;5074076;28;20954;-86
2023/12/18 01:52:01;;;;;;;22.13;9.80;;;;;;;;;;5089821;28;20396;-86
2023/12/18 01:54:28;;;;;;;21.20;9.00;;;;;;;;;;5066125;28;20440;-85
2023/12/18 01:56:57;;;;;;;29.48;9.20;;;;;;;;;;5036126;28;20429;-85
2023/12/18 01:59:24;;;;;;;25.00;9.18;;;;;;;;;;5090160;28;20744;-85
2023/12/18 02:01:51;;;;;;;23.98;9.55;;;;;;;;;;5077255;28;20403;-86
2023/12/18 02:04:21;;;;;;;26.98;9.10;;;;;;;;;;5106023;28;20495;-86
2023/12/18 02:06:49;;;;;;;26.65;9.20;;;;;;;;;;5039674;28;20427;-85
2023/12/18 02:09:15;;;;;;;21.03;9.47;;;;;;;;;;5074799;28;20448;-82
2023/12/18 02:11:46;;;;;;;23.02;9.57;;;;;;;;;;5071388;28;20407;-82
2023/12/18 02:14:13;;;;;;;21.58;8.70;;;;;;;;;;5075564;28;20446;-82
2023/12/18 02:16:39;;;;;;;21.83;8.80;;;;;;;;;;5077237;28;20810;-82
2023/12/18 02:19:26;;;;;;;22.95;8.85;;;;;;;;;;5081844;28;20486;-82
2023/12/18 02:21:56;;;;;;;20.13;8.65;;;;;;;;;;5066664;28;20409;-83
2023/12/18 02:24:22;;;;;;;22.38;8.43;;;;;;;;;;5077200;28;20404;-83
2023/12/18 02:26:54;;;;;;;27.98;9.20;;;;;;;;;;5086810;28;20487;-83
2023/12/18 02:29:36;;;;;;;20.63;8.02;;;;;;;;;;5087199;28;20406;-82
2023/12/18 02:32:02;;;;;;;23.20;8.10;;;;;;;;;;5088043;28;20491;-82
2023/12/18 02:34:31;;;;;;;21.58;8.20;;;;;;;;;;5069452;28;20404;-82
2023/12/18 02:37:06;;;;;;;21.17;8.10;;;;;;;;;;5035610;28;20500;-82
2023/12/18 02:39:32;;;;;;;20.30;8.07;;;;;;;;;;5080155;28;20432;-82
2023/12/18 02:41:58;;;;;;;19.13;7.82;;;;;;;;;;5059823;28;20411;-82
2023/12/18 02:44:24;;;;;;;24.55;8.45;;;;;;;;;;5079197;28;20400;-82
2023/12/18 02:46:50;;;;;;;22.88;8.23;;;;;;;;;;5094221;28;20416;-82
2023/12/18 02:49:16;;;;;;;23.92;7.97;;;;;;;;;;5087891;28;20485;-82
2023/12/18 02:51:42;;;;;;;21.98;8.07;;;;;;;;;;5074645;28;20421;-82
2023/12/18 02:54:09;;;;;;;26.00;8.30;;;;;;;;;;5107527;28;20398;-83
2023/12/18 02:56:35;;;;;;;22.80;7.70;;;;;;;;;;5108027;28;20434;-83
2023/12/18 02:59:04;;;;;;;18.63;7.93;;;;;;;;;;5078631;28;20911;-83
2023/12/18 03:01:31;;;;;;;23.87;8.07;;;;;;;;;;5056676;28;20479;-83
2023/12/18 03:03:57;;;;;;;17.35;7.63;;;;;;;;;;5064496;28;20412;-83
2023/12/18 03:06:23;;;;;;;23.27;7.72;;;;;;;;;;5064248;28;20475;-83
2023/12/18 03:09:05;;;;;;;;;;;;;;;;;;;;;
2023/12/18 03:11:53;;;;;;;24.38;8.00;;;;;;;;;;5052095;28;20401;-86
2023/12/18 03:14:19;;;;;;;23.90;8.27;;;;;;;;;;5054748;28;20397;-86
2023/12/18 03:16:48;;;;;;;19.45;7.70;;;;;;;;;;5051089;28;20437;-87
2023/12/18 03:19:16;;;;;;;22.40;8.07;;;;;;;;;;5035404;28;20405;-86
2023/12/18 03:21:58;;;;;;;22.25;8.18;;;;;;;;;;5101200;28;20398;-86
2023/12/18 03:24:31;;;;;;;25.23;8.38;;;;;;;;;;5081449;28;20439;-86
2023/12/18 03:26:58;;;;;;;25.15;8.65;;;;;;;;;;5108338;28;20870;-86
2023/12/18 03:29:30;;;;;;;23.50;8.20;;;;;;;;;;5026927;28;20438;-87
2023/12/18 03:32:00;;;;;;;21.73;8.40;;;;;;;;;;5057702;28;20409;-86
2023/12/18 03:34:26;;;;;;;19.55;8.02;;;;;;;;;;5081436;28;20906;-82
2023/12/18 03:36:52;;;;;;;22.42;8.10;;;;;;;;;;5073140;28;20463;-82
2023/12/18 03:39:19;;;;;;;22.40;7.88;;;;;;;;;;5073052;28;20455;-82
2023/12/18 03:41:47;;;;;;;22.87;8.47;;;;;;;;;;5055852;28;20437;-86
2023/12/18 03:44:14;;;;;;;17.55;7.32;;;;;;;;;;5073920;28;20402;-86
2023/12/18 03:46:40;;;;;;;23.65;8.63;;;;;;;;;;5054534;28;20417;-85
2023/12/18 03:49:25;;;;;;;21.05;9.05;;;;;;;;;;5075169;28;20386;-83
2023/12/18 03:51:52;;;;;;;22.83;8.53;;;;;;;;;;5054750;28;20414;-83
2023/12/18 03:54:19;;;;;;;20.75;8.60;;;;;;;;;;5054675;28;20545;-83
2023/12/18 03:56:52;;;;;;;20.10;7.75;;;;;;;;;;5057588;28;20493;-86
2023/12/18 03:59:22;;;;;;;21.83;8.77;;;;;;;;;;5088762;28;20398;-86
2023/12/18 04:01:48;;;;;;;22.90;8.32;;;;;;;;;;5087256;28;20426;-87
2023/12/18 04:04:16;;;;;;;23.60;8.70;;;;;;;;;;5088821;28;20894;-83
2023/12/18 04:06:45;;;;;;;24.02;8.20;;;;;;;;;;5090868;28;20511;-82
2023/12/18 04:09:14;;;;;;;22.40;8.27;;;;;;;;;;5090381;28;20406;-82
2023/12/18 04:11:46;;;;;;;19.63;7.82;;;;;;;;;;5075524;28;20430;-84
2023/12/18 04:14:21;;;;;;;26.60;8.25;;;;;;;;;;5060609;28;20402;-83
2023/12/18 04:16:54;;;;;;;18.70;8.00;;;;;;;;;;5059399;28;20893;-84
2023/12/18 04:19:20;;;;;;;26.50;9.23;;;;;;;;;;5074403;28;20406;-83
2023/12/18 04:21:49;;;;;;;20.70;9.07;;;;;;;;;;5055152;28;20419;-83
2023/12/18 04:24:46;;;;;;;24.20;9.40;;;;;;;;;;5077042;28;20483;-82
2023/12/18 04:30:14;;;;;;;23.95;10.02;;;;;;;;;;5038366;28;20416;-84
2023/12/18 04:32:52;;;;;;;18.57;9.50;;;;;;;;;;5085037;28;20421;-87
2023/12/18 04:35:21;;;;;;;21.00;9.65;;;;;;;;;;5089984;28;20414;-86
2023/12/18 04:40:39;;;;;;;26.00;9.15;;;;;;;;;;5013935;28;20484;-86
2023/12/18 04:43:14;;;;;;;24.17;10.00;;;;;;;;;;5103841;28;20416;-87
2023/12/18 04:45:47;;;;;;;25.35;9.48;;;;;;;;;;5093060;28;20422;-86
2023/12/18 04:48:39;;;;;;;22.27;9.13;;;;;;;;;;5088662;28;20406;-87
2023/12/18 04:51:15;;;;;;;23.38;8.40;;;;;;;;;;5072218;28;20392;-84
2023/12/18 04:57:02;;;;;;;25.92;9.40;;;;;;;;;;5061392;28;20886;-86
2023/12/18 04:59:40;;;;;;;21.40;8.65;;;;;;;;;;5074675;28;20438;-86
2023/12/18 05:02:25;;;;;;;19.58;8.48;;;;;;;;;;5070863;28;20653;-86
2023/12/18 05:04:59;;;;;;;21.30;8.57;;;;;;;;;;5072735;28;20934;-85
2023/12/18 05:07:51;;;;;;;20.95;8.13;;;;;;;;;;5072561;28;20413;-86
2023/12/18 05:10:21;;;;;;;24.63;9.03;;;;;;;;;;5052693;28;20540;-86
2023/12/18 05:13:09;;;;;;;24.60;9.17;;;;;;;;;;5099883;27;20404;-86
2023/12/18 05:16:05;;;;;;;24.50;9.57;;;;;;;;;;5088058;28;20767;-86
2023/12/18 05:18:37;;;;;;;25.73;9.80;;;;;;;;;;5056181;28;20964;-86
2023/12/18 05:21:29;;;;;;;;;;;;;;;;;;;;;
2023/12/18 05:24:45;;;;;;;22.17;10.55;;;;;;;;;;5069009;28;20841;-86
2023/12/18 05:27:20;;;;;;;27.00;11.07;;;;;;;;;;5063074;28;20424;-83
2023/12/18 05:29:46;;;;;;;22.13;10.95;;;;;;;;;;5066533;28;20413;-83
2023/12/18 05:32:13;;;;;;;24.77;10.90;;;;;;;;;;5090259;28;20812;-82
2023/12/18 05:34:40;;;;;;;27.35;12.10;;;;;;;;;;5060528;28;20406;-82
2023/12/18 05:37:06;;;;;;;27.88;11.10;;;;;;;;;;5078931;28;20414;-85
2023/12/18 05:39:32;;;;;;;25.98;11.25;;;;;;;;;;5073316;28;20787;-86
2023/12/18 05:41:58;;;;;;;23.88;11.63;;;;;;;;;;5090343;28;20446;-85
2023/12/18 05:44:24;;;;;;;24.55;11.82;;;;;;;;;;5093308;28;20428;-85
2023/12/18 05:46:50;;;;;;;27.38;12.43;;;;;;;;;;5061575;28;20418;-86
2023/12/18 05:49:19;;;;;;;26.50;12.45;;;;;;;;;;5093888;28;20394;-87
2023/12/18 05:51:46;;;;;;;28.88;12.52;;;;;;;;;;5059799;28;20399;-84
2023/12/18 05:54:12;;;;;;;24.40;12.32;;;;;;;;;;5073643;28;20392;-85
2023/12/18 05:56:38;;;;;;;31.73;12.55;;;;;;;;;;5055982;28;20755;-84
2023/12/18 05:59:06;;;;;;;31.15;13.07;;;;;;;;;;5072021;28;20427;-85
2023/12/18 06:01:32;;;;;;;24.73;13.00;;;;;;;;;;5082572;28;20459;-82
2023/12/18 06:03:58;;;;;;;30.23;13.02;;;;;;;;;;5068283;28;20408;-82
2023/12/18 06:06:24;;;;;;;26.67;13.00;;;;;;;;;;5053632;28;20433;-82
2023/12/18 06:08:53;;;;;;;27.17;12.75;;;;;;;;;;5047567;28;20394;-82
2023/12/18 06:11:20;;;;;;;29.67;13.43;;;;;;;;;;5060080;28;20402;-82
2023/12/18 06:13:46;;;;;;;32.00;14.15;;;;;;;;;;5056255;28;20405;-82
2023/12/18 06:16:12;;;;;;;29.08;13.23;;;;;;;;;;5086796;28;20452;-82
2023/12/18 06:18:38;;;;;;;31.30;13.25;;;;;;;;;;5057908;28;20402;-82
2023/12/18 06:21:06;;;;;;;27.30;13.23;;;;;;;;;;5064687;28;20412;-83
2023/12/18 06:23:34;;;;;;;29.65;13.32;;;;;;;;;;5087151;28;20430;-82
2023/12/18 06:26:00;;;;;;;30.20;13.52;;;;;;;;;;5092332;28;20422;-83
2023/12/18 06:28:27;;;;;;;31.83;13.88;;;;;;;;;;5064244;28;20394;-82
2023/12/18 06:30:54;;;;;;;29.02;13.13;;;;;;;;;;5085734;28;20818;-82
2023/12/18 06:33:20;;;;;;;23.85;13.15;;;;;;;;;;5073529;28;20402;-81
2023/12/18 06:35:46;;;;;;;27.35;13.48;;;;;;;;;;5121744;27;20769;-82
2023/12/18 06:38:13;;;;;;;30.83;13.97;;;;;;;;;;5058933;28;20414;-82
2023/12/18 06:40:46;;;;;;;27.23;13.35;;;;;;;;;;5073111;28;20391;-83
2023/12/18 06:43:14;;;;;;;26.05;13.52;;;;;;;;;;5070680;28;20407;-82
2023/12/18 06:45:40;;;;;;;29.77;13.07;;;;;;;;;;5088611;28;20426;-80
2023/12/18 06:48:07;;;;;;;26.85;13.00;;;;;;;;;;5079685;28;20404;-81
2023/12/18 06:50:43;;;;;;;25.55;12.80;;;;;;;;;;5074492;28;20394;-81
2023/12/18 06:53:09;;;;;;;27.33;12.65;;;;;;;;;;5076762;28;20397;-81
2023/12/18 06:55:36;;;;;;;30.80;13.18;;;;;;;;;;5075353;28;20841;-82
2023/12/18 06:58:03;;;;;;;28.08;13.00;;;;;;;;;;5095461;28;20414;-82
2023/12/18 07:00:29;;;;;;;27.73;12.25;;;;;;;;;;5090781;28;20761;-82
2023/12/18 07:02:56;;;;;;;29.23;12.03;;;;;;;;;;5098023;28;21030;-82
2023/12/18 07:05:23;;;;;;;27.02;12.98;;;;;;;;;;5090693;28;20422;-83
2023/12/18 07:07:52;;;;;;;29.95;12.88;;;;;;;;;;5073661;28;20425;-83
2023/12/18 07:10:24;;;;;;;26.23;12.27;;;;;;;;;;5090408;28;20487;-83
2023/12/18 07:12:50;;;;;;;28.40;12.57;;;;;;;;;;5078726;28;20424;-83
2023/12/18 07:15:17;;;;;;;26.35;12.57;;;;;;;;;;5090180;28;20452;-80
2023/12/18 07:17:45;;;;;;;24.63;12.68;;;;;;;;;;5098462;28;20439;-82
2023/12/18 07:20:12;;;;;;;24.03;11.37;;;;;;;;;;5073152;28;20410;-83
2023/12/18 07:22:40;;;;;;;28.65;12.60;;;;;;;;;;5090271;28;20833;-82
2023/12/18 07:25:09;;;;;;;26.80;11.73;;;;;;;;;;5089280;28;20420;-83
2023/12/18 07:27:38;;;;;;;27.73;12.27;;;;;;;;;;5090262;28;20508;-82
2023/12/18 07:30:10;;;;;;;26.70;11.90;;;;;;;;;;5090138;28;20404;-82
2023/12/18 07:32:39;;;;;;;25.88;11.93;;;;;;;;;;5090883;28;20395;-82
2023/12/18 07:35:06;;;;;;;31.75;12.32;;;;;;;;;;5089097;28;20456;-83
2023/12/18 07:37:32;;;;;;;27.13;10.93;;;;;;;;;;5089669;28;20470;-84
2023/12/18 07:40:06;;;;;;;27.33;11.53;;;;;;;;;;5069391;28;20466;-84
2023/12/18 07:42:32;;;;;;;26.63;11.48;;;;;;;;;;5093979;28;20944;-81
2023/12/18 07:44:59;;;;;;;25.52;11.80;;;;;;;;;;5065674;28;20398;-81
2023/12/18 07:47:30;;;;;;;26.92;12.25;;;;;;;;;;5062951;28;20405;-81
2023/12/18 07:49:57;;;;;;;27.17;11.82;;;;;;;;;;5085205;28;20409;-82
2023/12/18 07:52:23;;;;;;;28.23;12.13;;;;;;;;;;5052436;28;20392;-82
2023/12/18 07:54:49;;;;;;;29.45;12.70;;;;;;;;;;5065634;28;20594;-83
2023/12/18 07:57:16;;;;;;;27.27;12.07;;;;;;;;;;5040955;28;20479;-81
2023/12/18 07:59:45;;;;;;;28.52;12.82;;;;;;;;;;5072442;28;20409;-82
2023/12/18 08:02:15;;;;;;;26.35;12.30;;;;;;;;;;5088315;28;20492;-82
2023/12/18 08:04:41;;;;;;;31.55;12.02;;;;;;;;;;5068613;28;20579;-82
2023/12/18 08:07:07;;;;;;;24.00;11.27;;;;;;;;;;5090787;28;20435;-82
2023/12/18 08:09:33;;;;;;;26.85;11.88;;;;;;;;;;5088629;28;20429;-86
2023/12/18 08:12:00;;;;;;;32.63;12.48;;;;;;;;;;5088153;28;20398;-85
2023/12/18 08:14:26;;;;;;;26.90;11.70;;;;;;;;;;5116507;28;20441;-86
2023/12/18 08:16:52;;;;;;;26.50;11.98;;;;;;;;;;5058329;28;20682;-86
2023/12/18 08:19:22;;;;;;;33.03;11.88;;;;;;;;;;5104442;28;20485;-86
2023/12/18 08:21:50;;;;;;;32.40;12.35;;;;;;;;;;5087584;28;20421;-86
2023/12/18 08:24:16;;;;;;;28.20;12.13;;;;;;;;;;5052544;28;20486;-82
2023/12/18 08:27:02;;;;;;;26.83;11.98;;;;;;;;;;5088659;28;20418;-83
2023/12/18 08:29:30;;;;;;;27.83;11.95;;;;;;;;;;5104116;28;20907;-83
2023/12/18 08:31:59;;;;;;;25.27;11.27;;;;;;;;;;5097273;28;20720;-85
2023/12/18 08:34:36;;;;;;;29.10;11.85;;;;;;;;;;5073545;28;20403;-85
2023/12/18 08:37:03;;;;;;;28.45;11.27;;;;;;;;;;5058007;28;20757;-84
2023/12/18 08:39:29;;;;;;;27.00;11.57;;;;;;;;;;5111890;28;20449;-85
2023/12/18 08:41:58;;;;;;;25.43;11.27;;;;;;;;;;5066932;28;20408;-85
2023/12/18 08:45:06;;;;;;;30.50;12.23;;;;;;;;;;5043101;28;20449;-84
2023/12/18 08:47:40;;;;;;;26.02;12.15;;;;;;;;;;5043897;28;20442;-85
2023/12/18 08:50:09;;;;;;;28.35;12.32;;;;;;;;;;5026551;28;20399;-86
2023/12/18 08:52:46;;;;;;;23.48;11.70;;;;;;;;;;5012994;28;20446;-86
2023/12/18 08:55:12;;;;;;;29.38;12.13;;;;;;;;;;4993589;28;20407;-84
2023/12/18 08:57:39;;;;;;;28.73;12.70;;;;;;;;;;5016830;28;20418;-84
2023/12/18 09:00:06;;;;;;;27.73;12.18;;;;;;;;;;5016232;28;20454;-84
2023/12/18 09:02:35;;;;;;;25.92;12.07;;;;;;;;;;5019554;28;20407;-84
2023/12/18 09:05:09;;;;;;;26.88;13.02;;;;;;;;;;5032528;28;20411;-85
2023/12/18 09:07:42;;;;;;;32.20;12.90;;;;;;;;;;5015577;28;20404;-82
2023/12/18 09:10:13;;;;;;;26.23;13.02;;;;;;;;;;5022800;28;20481;-82
2023/12/18 09:12:40;;;;;;;27.73;13.32;;;;;;;;;;5017144;28;20431;-82
2023/12/18 09:15:07;;;;;;;27.53;13.07;;;;;;;;;;5024845;28;20391;-82
2023/12/18 09:17:33;;;;;;;27.98;14.50;;;;;;;;;;5055003;28;20396;-81
2023/12/18 09:19:59;;;;;;;26.23;13.88;;;;;;;;;;5056063;28;20415;-82
2023/12/18 09:22:28;;;;;;;30.90;14.80;;;;;;;;;;5089823;28;20461;-82
2023/12/18 09:24:57;;;;;;;32.33;15.00;;;;;;;;;;5093243;28;20396;-82
2023/12/18 09:27:44;;;;;;;28.63;14.52;;;;;;;;;;5058049;28;20742;-82
2023/12/18 09:30:11;;;;;;;33.67;14.95;;;;;;;;;;5076108;28;20444;-82
2023/12/18 09:32:37;;;;;;;34.10;14.98;;;;;;;;;;5076056;28;20477;-83
2023/12/18 09:35:03;;;;;;;26.63;14.32;;;;;;;;;;5076503;28;21009;-82
2023/12/18 09:37:29;;;;;;;27.67;14.75;;;;;;;;;;5059344;28;20440;-82
2023/12/18 09:40:00;;;;;;;29.33;14.38;;;;;;;;;;5067769;28;20402;-82
2023/12/18 09:42:27;;;;;;;34.55;15.27;;;;;;;;;;5084902;28;20409;-82
2023/12/18 09:44:53;;;;;;;27.95;14.52;;;;;;;;;;5087283;28;20423;-83
2023/12/18 09:50:35;;;;;;;29.52;14.60;;;;;;;;;;5017419;28;20410;-84
2023/12/18 09:53:12;;;;;;;34.17;15.07;;;;;;;;;;5072985;28;20476;-85
2023/12/18 09:56:05;;;;;;;26.77;15.45;;;;;;;;;;5084631;28;20409;-85
2023/12/18 09:58:34;;;;;;;27.75;14.82;;;;;;;;;;5057785;28;20405;-84
2023/12/18 10:04:50;;;;;;;;;;;;;;;;;;;;;
2023/12/18 10:07:22;;;;;;;31.15;17.48;;;;;;;;;;5099149;27;20426;-85
2023/12/18 10:09:51;;;;;;;36.42;18.02;;;;;;;;;;5088392;28;20945;-84
2023/12/18 10:15:16;;;;;;;29.95;17.48;;;;;;;;;;5052856;28;20394;-83
2023/12/18 10:21:04;;;;;;;29.27;18.25;;;;;;;;;;5073369;28;20375;-86
2023/12/18 10:23:58;;;;;;;36.13;19.38;;;;;;;;;;5065704;28;20399;-86
2023/12/18 10:26:34;;;;;;;32.15;18.67;;;;;;;;;;5062872;28;20917;-85
2023/12/18 10:32:21;;;;;;;33.13;18.70;;;;;;;;;;5042076;28;20937;-86
2023/12/18 10:35:17;;;;;;;38.80;18.38;;;;;;;;;;5077908;28;20404;-86
2023/12/18 10:41:30;;;;;;;33.22;19.25;;;;;;;;;;5101256;28;20402;-85
2023/12/18 10:44:00;;;;;;;33.45;17.92;;;;;;;;;;5063462;28;20822;-85
2023/12/18 10:46:52;;;;;;;35.88;18.90;;;;;;;;;;5070537;28;20433;-86
2023/12/18 10:49:42;;;;;;;37.87;19.03;;;;;;;;;;5047495;28;20438;-85
2023/12/18 10:52:22;;;;;;;40.67;18.73;;;;;;;;;;5085582;28;20426;-85
2023/12/18 10:54:55;;;;;;;32.08;18.02;;;;;;;;;;5088781;28;20481;-85
2023/12/18 10:57:24;;;;;;;32.45;18.60;;;;;;;;;;5088571;28;20411;-86
2023/12/18 10:59:59;;;;;;;32.00;18.25;;;;;;;;;;5089062;28;20499;-84
2023/12/18 11:02:28;;;;;;;33.47;18.52;;;;;;;;;;5077898;28;20517;-85
2023/12/18 11:05:21;;;;;;;34.75;18.92;;;;;;;;;;5064129;28;20463;-87
2023/12/18 11:08:10;;;;;;;31.63;18.45;;;;;;;;;;5073332;28;20430;-85
2023/12/18 11:10:58;;;;;;;31.80;18.15;;;;;;;;;;5061074;28;20406;-85
2023/12/18 11:13:31;;;;;;;35.65;19.30;;;;;;;;;;5077495;28;20780;-85
2023/12/18 11:16:20;;;;;;;37.53;19.00;;;;;;;;;;5106068;27;20409;-85
2023/12/18 11:19:09;;;;;;;35.58;19.15;;;;;;;;;;5041161;28;20407;-84
2023/12/18 11:22:04;;;;;;;30.50;18.25;;;;;;;;;;5088541;28;20933;-87
2023/12/18 11:24:59;;;;;;;33.85;18.63;;;;;;;;;;5082519;28;20459;-83
2023/12/18 11:27:36;;;;;;;40.03;19.70;;;;;;;;;;5062491;28;20426;-83
2023/12/18 11:30:06;;;;;;;36.70;18.75;;;;;;;;;;5073714;28;20398;-84
2023/12/18 11:33:00;;;;;;;32.30;18.23;;;;;;;;;;5058303;28;20398;-84
2023/12/18 11:35:37;;;;;;;35.83;17.75;;;;;;;;;;5069516;28;20422;-85
2023/12/18 11:38:09;;;;;;;27.70;17.03;;;;;;;;;;5070557;28;20406;-85
2023/12/18 11:41:04;;;;;;;32.75;17.50;;;;;;;;;;5028540;28;20410;-85
2023/12/18 11:43:48;;;;;;;33.90;17.88;;;;;;;;;;5063334;28;20865;-85
2023/12/18 11:46:20;;;;;;;30.83;16.58;;;;;;;;;;5059823;28;20809;-84
2023/12/18 11:48:46;;;;;;;28.87;16.77;;;;;;;;;;5092951;28;20396;-83
2023/12/18 11:51:20;;;;;;;32.42;16.88;;;;;;;;;;5032403;28;20422;-83
2023/12/18 11:54:09;;;;;;;28.63;16.63;;;;;;;;;;5054657;28;20442;-84
2023/12/18 11:56:39;;;;;;;28.25;16.02;;;;;;;;;;4971541;28;20416;-84
2023/12/18 11:59:06;;;;;;;33.17;16.55;;;;;;;;;;4953677;28;20444;-83
2023/12/18 12:01:33;;;;;;;28.52;15.88;;;;;;;;;;4972875;28;20412;-84
2023/12/18 12:04:05;;;;;;;30.33;16.10;;;;;;;;;;4976155;28;20501;-83
2023/12/18 12:06:31;;;;;;;28.52;16.50;;;;;;;;;;4988629;28;20452;-84
2023/12/18 12:09:20;;;;;;;29.42;16.73;;;;;;;;;;4972886;28;20513;-83
2023/12/18 12:11:52;;;;;;;28.60;16.00;;;;;;;;;;4975048;28;20915;-84
2023/12/18 12:14:23;;;;;;;28.08;15.55;;;;;;;;;;4979212;28;20902;-85
2023/12/18 12:17:01;;;;;;;28.77;16.83;;;;;;;;;;4939940;28;20414;-84
2023/12/18 12:19:34;;;;;;;29.27;15.77;;;;;;;;;;4981367;28;20413;-83
2023/12/18 12:22:03;;;;;;;29.70;16.25;;;;;;;;;;4985763;28;20408;-84
2023/12/18 12:24:30;;;;;;;31.33;17.02;;;;;;;;;;4970719;28;20419;-83
2023/12/18 12:26:57;;;;;;;28.90;15.87;;;;;;;;;;4979212;28;20438;-83
2023/12/18 12:29:32;;;;;;;32.55;16.27;;;;;;;;;;5094629;27;20932;-83
2023/12/18 12:31:58;;;;;;;31.13;16.67;;;;;;;;;;5090572;28;20526;-84
2023/12/18 12:34:27;;;;;;;33.03;17.15;;;;;;;;;;5074889;28;20401;-84
2023/12/18 12:36:56;;;;;;;31.42;16.58;;;;;;;;;;5075780;28;20415;-84
2023/12/18 12:39:56;;;;;;;33.35;16.80;;;;;;;;;;5083717;28;20787;-84
2023/12/18 12:42:53;;;;;;;31.63;17.30;;;;;;;;;;5078394;28;20440;-84
2023/12/18 12:45:32;;;;;;;32.17;16.77;;;;;;;;;;5072275;28;20551;-83
2023/12/18 12:48:21;;;;;;;30.95;16.80;;;;;;;;;;5079870;28;20418;-83
2023/12/18 12:50:47;;;;;;;31.00;17.02;;;;;;;;;;5073463;28;20474;-83
2023/12/18 12:53:25;;;;;;;30.05;17.60;;;;;;;;;;5091673;28;20414;-84
2023/12/18 12:56:03;;;;;;;32.07;17.43;;;;;;;;;;5102058;28;20433;-83
2023/12/18 12:59:09;;;;;;;32.55;16.63;;;9.50;99.90;;;;;;5063469;28;20388;-84
2023/12/18 13:02:19;;;;;;;30.60;16.67;;;;;;;;;;5093845;28;20400;-84
2023/12/18 13:04:48;;;;;;;32.72;17.08;;;;;;;;;;5076478;28;20428;-86
2023/12/18 13:07:18;;;;;;;30.45;16.60;;;;;;;;;;5075188;28;20913;-87
2023/12/18 13:09:44;;;;;;;30.38;16.58;;;;;;;;;;5075779;28;20477;-86
2023/12/18 13:12:14;;;;;;;27.67;16.85;;;;;;;;;;5092551;28;20406;-88
2023/12/18 13:14:53;;;;;;;33.65;16.63;;;;;;;;;;5060368;28;20398;-88
2023/12/18 13:17:23;;;;;;;30.50;16.33;;;;;;;;;;5105063;28;20408;-88
2023/12/18 13:23:02;;;;;;;31.75;16.70;;;;;;;;;;5105729;28;20398;-88
2023/12/18 13:25:35;;;;;;;29.88;16.38;;;;;;;;;;5073347;28;20396;-89
2023/12/18 13:28:04;;;;;;;26.73;16.10;;;;;;;;;;5079467;28;20414;-87
2023/12/18 13:30:40;;;;;;;31.05;15.95;;;;;;;;;;5108354;27;20499;-84
2023/12/18 13:33:23;;;;;;;31.70;16.33;;;;;;;;;;5077343;28;20455;-85
2023/12/18 13:36:40;;;;;;;33.45;16.02;;;;;;;;;;5099035;28;20396;-85
2023/12/18 13:39:37;;;;;;;29.38;15.57;;;;;;;;;;5068335;28;20921;-85
2023/12/18 13:42:29;;;;;;;30.73;16.30;;;;;;;;;;5068784;28;20512;-85
2023/12/18 13:51:46;;;;;;;31.08;15.35;;;;;;;;;;5045327;28;20405;-86
2023/12/18 13:54:18;;;;;;;31.23;16.47;;;;;;;;;;5052770;28;20804;-84
2023/12/18 13:56:57;;;;;;;35.60;17.00;;;;;;;;;;5040768;28;20414;-83
2023/12/18 13:59:23;;;;;;;30.42;16.50;;;;;;;;;;5074103;28;20416;-87
2023/12/18 14:02:04;;;;;;;31.45;16.13;;;;;;;;;;5074169;28;20394;-86
2023/12/18 14:04:54;;;;;;;30.88;15.75;;;;;;;;;;5022178;28;20798;-87
2023/12/18 14:07:46;;;;;;;27.63;15.82;;;;;;;;;;5072878;28;20479;-87
2023/12/18 14:10:12;;;;;;;34.25;16.63;;;;;;;;;;5010866;28;20489;-87
2023/12/18 14:12:53;;;;;;;32.85;16.65;;;;;;;;;;5078352;28;20414;-88
2023/12/18 14:22:47;;;;;;;34.40;16.20;;;;;;;;;;5055067;28;20801;-81
2023/12/18 14:25:15;;;;;;;35.90;16.90;;;;;;;;;;5027834;28;20415;-83
2023/12/18 14:27:49;;;;;;;31.65;16.95;;;;;;;;;;5026940;28;20484;-82
2023/12/18 14:33:34;;;;;;;28.02;16.45;;;;;;;;;;5043773;28;20436;-87
2023/12/18 14:40:04;;;;;;;29.42;15.50;;;;;;;;;;5064340;28;20481;-84
2023/12/18 14:43:08;;;;;;;29.33;16.10;;;;;;;;;;5046553;28;20516;-86
2023/12/18 14:46:03;;;;;;;32.10;16.73;;;;;;;;;;5073429;28;20909;-83
2023/12/18 14:48:42;;;;;;;32.50;16.63;;;;;;;;;;5073862;28;20394;-83
2023/12/18 14:51:30;;;;;;;31.93;16.00;;;;;;;;;;5072805;28;20815;-82
2023/12/18 14:54:03;;;;;;;32.85;16.38;;;;;;;;;;5088678;28;20792;-84
2023/12/18 14:56:52;;;;;;;27.38;16.33;;;;;;;;;;5055518;28;20452;-84
2023/12/18 14:59:28;;;;;;;34.63;16.42;;;;;;;;;;5070981;28;20402;-84
2023/12/18 15:05:22;;;;;;;31.20;17.00;;;;;;;;;;4975805;28;20810;-84
2023/12/18 15:08:22;;;;;;;32.10;16.73;;;;;;;;;;5084993;28;20410;-84
2023/12/18 15:10:49;;;;;;;32.13;17.92;;;;;;;;;;5102905;28;20422;-84
2023/12/18 15:13:15;;;;;;;27.75;17.10;;;;;;;;;;5071214;28;20906;-83
2023/12/18 15:15:45;;;;;;;31.33;17.25;;;;;;;;;;5090173;28;20402;-84
2023/12/18 15:18:19;;;;;;;35.97;17.05;;;;;;;;;;5052333;28;20407;-84
2023/12/18 15:20:55;;;;;;;30.42;17.05;;;;;;;;;;5041789;28;20515;-85
2023/12/18 15:23:21;;;;;;;32.78;16.98;;;;;;;;;;5030481;28;20469;-83
2023/12/18 15:26:16;;;;;;;32.35;16.70;;;;;;;;;;5045429;28;20428;-81
2023/12/18 15:28:58;;;;;;;32.77;16.83;;;;;;;;;;5049360;28;20435;-81
2023/12/18 15:31:42;;;;;;;33.08;17.23;;;;;;;;;;5051777;28;20444;-82
2023/12/18 15:34:14;;;;;;;28.92;16.55;;;;;;;;;;5059619;28;20396;-82
2023/12/18 15:36:42;;;;;;;35.42;15.98;;;;;;;;;;5054087;28;20832;-83
2023/12/18 15:39:13;;;;;;;31.20;16.45;;;;;;;;;;5086854;28;20983;-82
2023/12/18 15:41:42;;;;;;;31.38;17.08;;;;;;;;;;5059542;28;20416;-81
2023/12/18 15:44:14;;;;;;;28.73;16.77;;;;;;;;;;5052392;28;20917;-81
2023/12/18 15:46:48;;;;;;;30.73;16.58;;;;;;;;;;5044124;28;20448;-82
2023/12/18 15:49:23;;;;;;;27.77;16.27;;;;;;;;;;5042965;28;20402;-82
2023/12/18 15:51:55;;;;;;;33.13;17.07;;;;;;;;;;5071137;28;20403;-82